createdAt,value
2023-05-09T00:00:55.979Z,66.62
2023-05-09T00:03:22.284Z,66.86
2023-05-09T00:05:48.591Z,66.16
2023-05-09T00:08:14.961Z,65.41
2023-05-09T00:10:41.239Z,65.69
2023-05-09T00:13:07.578Z,65.46
2023-05-09T00:15:33.937Z,66.07
2023-05-09T00:18:00.344Z,66.25
2023-05-09T00:20:26.756Z,65.74
2023-05-09T00:22:53.044Z,67.32
2023-05-09T00:25:22.391Z,67.59
2023-05-09T00:27:48.720Z,66.87
2023-05-09T00:30:15.012Z,67.32
2023-05-09T00:32:41.389Z,68.01
2023-05-09T00:35:07.815Z,67.81
2023-05-09T00:37:34.100Z,67.82
2023-05-09T00:40:00.402Z,67.44
2023-05-09T00:42:26.731Z,67.94
2023-05-09T00:44:53.023Z,68.47
2023-05-09T00:47:19.311Z,67.11
2023-05-09T00:49:45.611Z,67.22
2023-05-09T00:52:11.893Z,67.95
2023-05-09T00:54:38.172Z,68.29
2023-05-09T00:57:04.544Z,67.75
2023-05-09T00:59:30.866Z,68.57
2023-05-09T01:01:57.172Z,68.94
2023-05-09T01:04:23.472Z,68.63
2023-05-09T01:06:49.817Z,68.91
2023-05-09T01:09:16.119Z,69.78
2023-05-09T01:11:42.439Z,68.42
2023-05-09T01:14:08.744Z,68.29
2023-05-09T01:16:35.063Z,68.43
2023-05-09T01:19:01.389Z,68.84
2023-05-09T01:21:27.679Z,68.53
2023-05-09T01:23:53.978Z,69.19
2023-05-09T01:26:20.277Z,70.03
2023-05-09T01:28:46.698Z,69.03
2023-05-09T01:31:12.997Z,69.00
2023-05-09T01:33:39.330Z,68.70
2023-05-09T01:36:05.665Z,68.95
2023-05-09T01:38:31.964Z,67.93
2023-05-09T01:40:58.272Z,68.34
2023-05-09T01:43:24.564Z,69.59
2023-05-09T01:45:50.848Z,68.46
2023-05-09T01:48:17.155Z,68.83
2023-05-09T01:50:43.447Z,70.35
2023-05-09T01:53:09.750Z,69.08
2023-05-09T01:55:36.282Z,69.53
2023-05-09T01:58:02.617Z,70.14
2023-05-09T02:00:28.970Z,69.69
2023-05-09T02:02:55.490Z,70.08
2023-05-09T02:05:21.843Z,69.45
2023-05-09T02:07:48.132Z,70.69
2023-05-09T02:10:14.448Z,70.59
2023-05-09T02:12:40.818Z,70.65
2023-05-09T02:15:07.153Z,70.51
2023-05-09T02:17:33.476Z,71.17
2023-05-09T02:19:59.780Z,70.64
2023-05-09T02:22:26.091Z,70.85
2023-05-09T02:24:53.635Z,70.74
2023-05-09T02:27:19.927Z,69.96
2023-05-09T02:29:46.250Z,70.52
2023-05-09T02:32:12.625Z,71.32
2023-05-09T02:34:38.959Z,70.91
2023-05-09T02:37:05.263Z,70.56
2023-05-09T02:39:31.589Z,71.44
2023-05-09T02:41:57.896Z,69.97
2023-05-09T02:44:24.231Z,70.50
2023-05-09T02:46:50.606Z,69.99
2023-05-09T02:49:30.934Z,71.63
2023-05-09T02:51:58.550Z,70.58
2023-05-09T02:54:24.871Z,70.89
2023-05-09T02:56:51.187Z,71.52
2023-05-09T02:59:17.505Z,70.78
2023-05-09T03:01:43.855Z,71.76
2023-05-09T03:04:10.155Z,72.33
2023-05-09T03:06:36.536Z,73.10
2023-05-09T03:09:02.835Z,72.49
2023-05-09T03:11:29.126Z,72.91
2023-05-09T03:13:55.438Z,72.78
2023-05-09T03:16:21.861Z,72.76
2023-05-09T03:18:48.318Z,72.32
2023-05-09T03:21:14.651Z,73.47
2023-05-09T03:23:40.942Z,72.35
2023-05-09T03:26:07.253Z,72.71
2023-05-09T03:28:33.572Z,73.07
2023-05-09T03:30:59.909Z,72.39
2023-05-09T03:33:26.220Z,73.33
2023-05-09T03:35:52.561Z,73.22
2023-05-09T03:38:18.858Z,72.65
2023-05-09T03:40:45.165Z,72.32
2023-05-09T03:43:11.487Z,73.12
2023-05-09T03:45:37.782Z,73.60
2023-05-09T03:48:04.244Z,73.00
2023-05-09T03:50:30.734Z,72.92
2023-05-09T03:52:57.118Z,73.08
2023-05-09T03:55:23.435Z,73.46
2023-05-09T03:57:49.762Z,72.81
2023-05-09T04:00:16.087Z,73.04
2023-05-09T04:02:42.540Z,73.21
2023-05-09T04:05:09.039Z,73.32
2023-05-09T04:07:35.340Z,74.31
2023-05-09T04:10:01.646Z,74.26
2023-05-09T04:12:28.009Z,74.11
2023-05-09T04:14:54.324Z,73.38
2023-05-09T04:17:20.629Z,74.59
2023-05-09T04:19:46.959Z,74.93
2023-05-09T04:22:13.255Z,75.44
2023-05-09T04:24:39.562Z,75.42
2023-05-09T04:27:05.887Z,74.47
2023-05-09T04:29:32.190Z,75.42
2023-05-09T04:31:58.735Z,75.32
2023-05-09T04:34:25.196Z,75.61
2023-05-09T04:36:51.503Z,75.16
2023-05-09T04:39:17.805Z,75.37
2023-05-09T04:41:44.128Z,75.43
2023-05-09T04:44:10.425Z,75.43
2023-05-09T04:46:36.742Z,75.43
2023-05-09T04:49:03.163Z,74.67
2023-05-09T04:51:29.459Z,74.43
2023-05-09T04:53:55.761Z,75.61
2023-05-09T04:56:22.101Z,75.26
2023-05-09T04:58:48.419Z,75.58
2023-05-09T05:01:14.737Z,75.18
2023-05-09T05:03:41.108Z,74.97
2023-05-09T05:06:07.416Z,74.78
2023-05-09T05:08:33.719Z,74.79
2023-05-09T05:11:00.045Z,74.82
2023-05-09T05:13:26.419Z,75.57
2023-05-09T05:15:52.791Z,75.08
2023-05-09T05:18:19.198Z,74.06
2023-05-09T05:20:45.496Z,74.80
2023-05-09T05:23:11.784Z,74.65
2023-05-09T05:25:38.083Z,75.49
2023-05-09T05:28:04.407Z,75.84
2023-05-09T05:30:32.756Z,73.90
2023-05-09T05:33:00.414Z,74.02
2023-05-09T05:35:26.718Z,73.76
2023-05-09T05:37:53.260Z,74.71
2023-05-09T05:40:19.563Z,73.56
2023-05-09T05:42:45.876Z,74.93
2023-05-09T05:45:12.386Z,73.66
2023-05-09T05:47:38.991Z,74.03
2023-05-09T05:50:05.861Z,74.35
2023-05-09T05:52:32.518Z,73.39
2023-05-09T05:54:58.871Z,74.54
2023-05-09T05:57:25.168Z,73.81
2023-05-09T05:59:51.475Z,74.26
2023-05-09T06:02:17.823Z,74.81
2023-05-09T06:04:44.196Z,75.81
2023-05-09T06:07:10.492Z,76.00
2023-05-09T06:09:36.822Z,76.06
2023-05-09T06:12:03.182Z,75.89
2023-05-09T06:14:29.473Z,76.71
2023-05-09T06:16:55.851Z,77.03
2023-05-09T06:19:22.151Z,75.94
2023-05-09T06:21:48.448Z,75.49
2023-05-09T06:24:27.601Z,74.99
2023-05-09T06:27:01.066Z,73.84
2023-05-09T06:29:27.378Z,76.71
2023-05-09T06:31:53.726Z,76.09
2023-05-09T06:34:20.049Z,78.12
2023-05-09T06:36:46.367Z,78.01
2023-05-09T06:39:12.674Z,78.39
2023-05-09T06:41:38.983Z,78.07
2023-05-09T06:44:05.304Z,76.69
2023-05-09T06:46:31.603Z,77.99
2023-05-09T06:48:57.918Z,76.48
2023-05-09T06:51:24.253Z,75.90
2023-05-09T06:53:50.565Z,77.16
2023-05-09T06:56:19.480Z,76.38
2023-05-09T06:58:46.322Z,76.41
2023-05-09T07:01:12.658Z,76.90
2023-05-09T07:03:38.986Z,75.78
2023-05-09T07:06:05.298Z,75.63
2023-05-09T07:08:31.603Z,75.14
2023-05-09T07:10:57.914Z,74.92
2023-05-09T07:13:24.301Z,73.90
2023-05-09T07:15:50.671Z,75.82
2023-05-09T07:18:17.023Z,77.59
2023-05-09T07:20:43.391Z,76.04
2023-05-09T07:23:09.694Z,76.19
2023-05-09T07:25:35.986Z,76.50
2023-05-09T07:28:02.335Z,75.68
2023-05-09T07:30:28.659Z,75.00
2023-05-09T07:32:54.990Z,75.22
2023-05-09T07:35:21.335Z,75.81
2023-05-09T07:37:47.643Z,75.12
2023-05-09T07:40:14.222Z,74.92
2023-05-09T07:42:40.879Z,74.85
2023-05-09T07:45:07.221Z,74.30
2023-05-09T07:47:33.606Z,73.98
2023-05-09T07:49:59.955Z,71.18
2023-05-09T07:52:26.270Z,72.51
2023-05-09T07:54:52.594Z,72.87
2023-05-09T07:57:19.047Z,73.20
2023-05-09T07:59:45.370Z,72.32
2023-05-09T08:02:11.698Z,73.49
2023-05-09T08:04:38.105Z,72.53
2023-05-09T08:07:04.423Z,72.91
2023-05-09T08:09:30.756Z,73.09
2023-05-09T08:11:57.087Z,71.73
2023-05-09T08:14:23.383Z,72.20
2023-05-09T08:16:49.719Z,72.39
2023-05-09T08:19:16.038Z,72.29
2023-05-09T08:21:42.344Z,71.84
2023-05-09T08:24:08.648Z,72.32
2023-05-09T08:26:34.979Z,72.00
2023-05-09T08:29:01.297Z,72.71
2023-05-09T08:31:27.669Z,70.59
2023-05-09T08:33:54.081Z,71.30
2023-05-09T08:36:20.380Z,72.17
2023-05-09T08:38:47.006Z,71.46
2023-05-09T08:41:13.323Z,71.68
2023-05-09T08:43:39.623Z,71.28
2023-05-09T08:46:05.938Z,70.09
2023-05-09T08:48:34.031Z,70.49
2023-05-09T08:51:01.551Z,70.21
2023-05-09T08:53:27.850Z,69.13
2023-05-09T08:55:54.169Z,69.48
2023-05-09T08:58:20.569Z,69.76
2023-05-09T09:00:46.859Z,68.94
2023-05-09T09:03:13.233Z,68.54
2023-05-09T09:05:42.253Z,68.56
2023-05-09T09:08:08.858Z,68.86
2023-05-09T09:10:35.169Z,68.28
2023-05-09T09:13:01.517Z,68.96
2023-05-09T09:15:27.847Z,67.85
2023-05-09T09:17:54.232Z,68.22
2023-05-09T09:20:20.595Z,68.65
2023-05-09T09:22:46.950Z,66.82
2023-05-09T09:25:13.274Z,67.40
2023-05-09T09:27:39.579Z,68.43
2023-05-09T09:30:05.879Z,67.02
2023-05-09T09:32:32.244Z,67.93
2023-05-09T09:34:58.538Z,68.37
2023-05-09T09:37:24.825Z,67.25
2023-05-09T09:39:51.177Z,67.58
2023-05-09T09:42:17.485Z,68.57
2023-05-09T09:44:43.782Z,66.67
2023-05-09T09:47:10.109Z,66.95
2023-05-09T09:49:36.459Z,66.21
2023-05-09T09:52:02.765Z,67.23
2023-05-09T09:54:29.102Z,65.92
2023-05-09T09:56:55.501Z,65.47
2023-05-09T09:59:21.838Z,65.77
2023-05-09T10:01:48.281Z,64.65
2023-05-09T10:04:14.719Z,64.77
2023-05-09T10:06:41.056Z,63.19
2023-05-09T10:09:07.371Z,63.74
2023-05-09T10:11:33.678Z,64.18
2023-05-09T10:13:59.980Z,62.62
2023-05-09T10:16:42.624Z,63.02
2023-05-09T10:19:10.331Z,62.66
2023-05-09T10:21:37.986Z,62.11
2023-05-09T10:24:04.376Z,62.74
2023-05-09T10:26:30.671Z,61.10
2023-05-09T10:28:57.004Z,60.33
2023-05-09T10:31:23.521Z,60.63
2023-05-09T10:33:49.900Z,61.44
2023-05-09T10:36:16.209Z,60.74
2023-05-09T10:38:42.492Z,60.89
2023-05-09T10:41:08.791Z,61.14
2023-05-09T10:43:36.667Z,61.02
2023-05-09T10:46:03.206Z,61.45
2023-05-09T10:48:29.611Z,59.95
2023-05-09T10:50:55.932Z,61.06
2023-05-09T10:53:22.227Z,59.58
2023-05-09T10:55:48.524Z,60.84
2023-05-09T10:58:14.859Z,59.31
2023-05-09T11:00:41.167Z,57.63
2023-05-09T11:03:07.592Z,58.04
2023-05-09T11:05:34.032Z,57.99
2023-05-09T11:08:00.324Z,58.15
2023-05-09T11:10:26.605Z,57.74
2023-05-09T11:12:53.950Z,57.70
2023-05-09T11:15:21.763Z,59.58
2023-05-09T11:17:48.082Z,58.89
2023-05-09T11:20:14.450Z,58.66
2023-05-09T11:22:40.748Z,59.57
2023-05-09T11:25:07.042Z,59.53
2023-05-09T11:27:33.414Z,59.61
2023-05-09T11:29:59.711Z,59.14
2023-05-09T11:32:26.031Z,59.07
2023-05-09T11:34:52.366Z,59.42
2023-05-09T11:37:18.652Z,61.82
2023-05-09T11:39:44.945Z,59.55
2023-05-09T11:42:11.270Z,60.83
2023-05-09T11:44:37.847Z,59.64
2023-05-09T11:47:04.244Z,60.16
2023-05-09T11:49:30.601Z,60.89
2023-05-09T11:51:56.894Z,61.78
2023-05-09T11:54:23.192Z,61.03
2023-05-09T11:56:49.499Z,63.73
2023-05-09T11:59:15.864Z,65.00
2023-05-09T12:01:42.207Z,65.49
2023-05-09T12:04:08.600Z,62.93
2023-05-09T12:06:34.952Z,61.72
2023-05-09T12:09:01.238Z,63.64
2023-05-09T12:11:27.569Z,62.27
2023-05-09T12:13:53.858Z,62.10
2023-05-09T12:16:20.276Z,62.78
2023-05-09T12:18:46.644Z,62.16
2023-05-09T12:21:12.945Z,62.04
2023-05-09T12:23:39.250Z,61.36
2023-05-09T12:26:05.571Z,63.39
2023-05-09T12:28:31.919Z,62.56
2023-05-09T12:30:58.233Z,61.88
2023-05-09T12:33:25.000Z,62.40
2023-05-09T12:35:51.909Z,61.97
2023-05-09T12:38:19.733Z,62.13
2023-05-09T12:40:46.056Z,63.47
2023-05-09T12:43:12.367Z,62.73
2023-05-09T12:45:38.667Z,61.72
2023-05-09T12:48:05.054Z,61.96
2023-05-09T12:50:31.416Z,64.48
2023-05-09T12:53:03.436Z,65.29
2023-05-09T12:55:30.140Z,66.23
2023-05-09T12:57:56.429Z,66.57
2023-05-09T13:00:22.732Z,65.87
2023-05-09T13:02:49.129Z,65.87
2023-05-09T13:05:15.690Z,66.03
2023-05-09T13:07:42.252Z,65.13
2023-05-09T13:10:10.165Z,67.25
2023-05-09T13:12:37.469Z,65.65
2023-05-09T13:15:03.801Z,66.83
2023-05-09T13:17:30.176Z,66.55
2023-05-09T13:19:56.527Z,69.37
2023-05-09T13:22:22.811Z,67.12
2023-05-09T13:24:49.129Z,67.54
2023-05-09T13:27:15.417Z,65.43
2023-05-09T13:29:41.724Z,64.26
2023-05-09T13:32:08.042Z,65.00
2023-05-09T13:34:34.335Z,65.55
2023-05-09T13:37:00.638Z,66.16
2023-05-09T13:39:27.007Z,65.72
2023-05-09T13:41:53.295Z,64.79
2023-05-09T13:44:19.670Z,64.72
2023-05-09T13:46:46.066Z,66.39
2023-05-09T13:49:12.430Z,65.83
2023-05-09T13:51:38.725Z,61.48
2023-05-09T13:54:05.086Z,63.01
2023-05-09T13:56:31.381Z,65.05
2023-05-09T13:58:57.678Z,67.69
2023-05-09T14:01:24.079Z,67.31
2023-05-09T14:03:50.499Z,69.23
2023-05-09T14:06:16.823Z,69.09
2023-05-09T14:08:43.150Z,65.99
2023-05-09T14:11:09.457Z,67.60
2023-05-09T14:13:35.785Z,66.93
2023-05-09T14:16:02.145Z,68.46
2023-05-09T14:18:28.468Z,69.47
2023-05-09T14:20:54.772Z,68.99
2023-05-09T14:23:21.089Z,70.30
2023-05-09T14:25:47.416Z,68.86
2023-05-09T14:28:13.861Z,70.09
2023-05-09T14:30:40.172Z,70.23
2023-05-09T14:33:06.469Z,70.79
2023-05-09T14:35:32.865Z,69.73
2023-05-09T14:37:59.253Z,70.80
2023-05-09T14:40:25.550Z,71.94
2023-05-09T14:42:51.853Z,72.96
2023-05-09T14:45:18.193Z,73.10
2023-05-09T14:47:44.501Z,75.33
2023-05-09T14:50:10.792Z,73.20
2023-05-09T14:52:37.099Z,75.04
2023-05-09T14:55:03.410Z,75.84
2023-05-09T14:57:29.714Z,76.52
2023-05-09T14:59:58.931Z,75.46
2023-05-09T15:02:29.539Z,78.56
2023-05-09T15:04:55.909Z,78.69
2023-05-09T15:07:22.213Z,77.97
2023-05-09T15:09:48.525Z,72.74
2023-05-09T15:12:15.106Z,70.01
2023-05-09T15:14:41.453Z,71.11
2023-05-09T15:17:07.836Z,70.57
2023-05-09T15:19:34.242Z,70.49
2023-05-09T15:22:00.556Z,69.65
2023-05-09T15:24:26.871Z,68.95
2023-05-09T15:26:53.190Z,69.95
2023-05-09T15:29:19.480Z,71.96
2023-05-09T15:31:45.772Z,71.81
2023-05-09T15:34:12.087Z,70.15
2023-05-09T15:36:38.854Z,71.83
2023-05-09T15:39:05.638Z,70.75
2023-05-09T15:41:32.038Z,72.34
2023-05-09T15:43:58.540Z,72.96
2023-05-09T15:46:24.992Z,73.76
2023-05-09T15:48:52.164Z,73.78
2023-05-09T15:51:19.730Z,73.87
2023-05-09T15:53:46.043Z,75.22
2023-05-09T15:56:12.362Z,75.09
2023-05-09T15:58:38.656Z,76.11
2023-05-09T16:01:05.007Z,77.20
2023-05-09T16:03:31.772Z,77.17
2023-05-09T16:05:58.330Z,76.92
2023-05-09T16:08:24.623Z,78.19
2023-05-09T16:10:50.983Z,78.36
2023-05-09T16:13:17.384Z,78.04
2023-05-09T16:15:43.908Z,78.08
2023-05-09T16:18:10.252Z,77.85
2023-05-09T16:20:36.543Z,77.62
2023-05-09T16:23:02.829Z,77.08
2023-05-09T16:25:29.138Z,78.31
2023-05-09T16:27:55.447Z,78.97
2023-05-09T16:30:21.758Z,78.38
2023-05-09T16:32:48.105Z,78.99
2023-05-09T16:35:14.432Z,78.88
2023-05-09T16:37:40.740Z,78.84
2023-05-09T16:40:07.042Z,79.18
2023-05-09T16:42:33.343Z,79.36
2023-05-09T16:44:59.624Z,79.21
2023-05-09T16:47:25.980Z,80.38
2023-05-09T16:49:52.299Z,79.72
2023-05-09T16:52:18.604Z,78.67
2023-05-09T16:54:44.947Z,80.41
2023-05-09T16:57:11.271Z,79.51
2023-05-09T16:59:37.755Z,79.37
2023-05-09T17:02:04.093Z,82.31
2023-05-09T17:04:30.464Z,81.22
2023-05-09T17:06:56.785Z,81.11
2023-05-09T17:09:23.152Z,80.78
2023-05-09T17:11:49.451Z,81.77
2023-05-09T17:14:15.760Z,82.43
2023-05-09T17:16:42.126Z,82.49
2023-05-09T17:19:08.441Z,82.40
2023-05-09T17:21:35.000Z,82.82
2023-05-09T17:24:01.330Z,83.42
2023-05-09T17:26:27.638Z,82.27
2023-05-09T17:28:53.952Z,82.70
2023-05-09T17:31:20.324Z,81.61
2023-05-09T17:33:46.633Z,82.51
2023-05-09T17:36:12.934Z,82.16
2023-05-09T17:38:39.264Z,82.64
2023-05-09T17:41:05.563Z,82.17
2023-05-09T17:43:31.873Z,82.10
2023-05-09T17:45:58.195Z,82.52
2023-05-09T17:48:24.503Z,82.46
2023-05-09T17:50:50.804Z,84.22
2023-05-09T17:53:17.112Z,85.09
2023-05-09T17:55:43.412Z,84.61
2023-05-09T17:58:09.710Z,84.17
2023-05-09T18:00:36.033Z,83.29
2023-05-09T18:03:02.369Z,83.49
2023-05-09T18:05:28.750Z,84.22
2023-05-09T18:07:55.190Z,83.60
2023-05-09T18:10:21.547Z,85.29
2023-05-09T18:12:47.878Z,85.82
2023-05-09T18:15:14.253Z,85.13
2023-05-09T18:17:40.600Z,84.88
2023-05-09T18:20:06.979Z,86.14
2023-05-09T18:22:33.317Z,85.68
2023-05-09T18:24:59.631Z,85.45
2023-05-09T18:27:25.937Z,84.82
2023-05-09T18:29:52.261Z,85.35
2023-05-09T18:32:18.556Z,85.21
2023-05-09T18:34:44.863Z,85.44
2023-05-09T18:37:11.179Z,84.60
2023-05-09T18:39:37.484Z,86.25
2023-05-09T18:42:03.778Z,86.60
2023-05-09T18:44:30.077Z,86.57
2023-05-09T18:46:56.412Z,85.55
2023-05-09T18:49:22.721Z,84.02
2023-05-09T18:51:49.052Z,83.52
2023-05-09T18:54:15.348Z,84.78
2023-05-09T18:56:41.645Z,84.93
2023-05-09T18:59:07.962Z,85.76
2023-05-09T19:01:34.287Z,85.49
2023-05-09T19:04:00.628Z,85.42
2023-05-09T19:06:26.983Z,85.69
2023-05-09T19:08:53.290Z,84.98
2023-05-09T19:11:19.592Z,85.26
2023-05-09T19:13:45.949Z,85.97
2023-05-09T19:16:12.308Z,86.32
2023-05-09T19:18:38.607Z,85.56
2023-05-09T19:21:04.947Z,85.09
2023-05-09T19:23:31.247Z,85.93
2023-05-09T19:25:57.551Z,85.65
2023-05-09T19:28:23.861Z,85.49
2023-05-09T19:30:50.173Z,86.21
2023-05-09T19:33:16.508Z,85.40
2023-05-09T19:35:42.837Z,85.54
2023-05-09T19:38:09.155Z,85.91
2023-05-09T19:40:35.452Z,85.45
2023-05-09T19:43:01.772Z,85.38
2023-05-09T19:45:28.076Z,85.95
2023-05-09T19:47:54.423Z,85.04
2023-05-09T19:50:20.869Z,85.05
2023-05-09T19:52:47.165Z,84.24
2023-05-09T19:55:13.485Z,84.58
2023-05-09T19:57:39.803Z,84.40
2023-05-09T20:00:06.117Z,85.03
2023-05-09T20:02:32.447Z,86.31
2023-05-09T20:04:58.794Z,86.64
2023-05-09T20:07:25.095Z,87.02
2023-05-09T20:09:51.409Z,87.12
2023-05-09T20:12:17.729Z,87.00
2023-05-09T20:14:44.024Z,86.99
2023-05-09T20:17:10.314Z,88.10
2023-05-09T20:19:36.637Z,87.66
2023-05-09T20:22:02.934Z,86.50
2023-05-09T20:24:29.222Z,85.89
2023-05-09T20:26:55.581Z,87.01
2023-05-09T20:29:21.878Z,85.79
2023-05-09T20:31:48.271Z,86.39
2023-05-09T20:34:14.616Z,85.44
2023-05-09T20:36:40.921Z,86.08
2023-05-09T20:39:08.367Z,85.43
2023-05-09T20:41:35.497Z,85.24
2023-05-09T20:44:01.789Z,86.78
2023-05-09T20:46:28.087Z,87.06
2023-05-09T20:48:54.397Z,86.68
2023-05-09T20:51:20.690Z,86.47
2023-05-09T20:53:46.995Z,86.86
2023-05-09T20:56:13.320Z,88.03
2023-05-09T20:58:39.674Z,87.09
2023-05-09T21:01:06.003Z,87.50
2023-05-09T21:03:32.350Z,87.28
2023-05-09T21:05:59.044Z,86.21
2023-05-09T21:08:25.512Z,85.44
2023-05-09T21:10:51.836Z,84.16
2023-05-09T21:13:18.148Z,84.42
2023-05-09T21:15:44.475Z,84.82
2023-05-09T21:18:10.850Z,84.44
2023-05-09T21:20:37.187Z,85.32
2023-05-09T21:23:03.478Z,84.19
2023-05-09T21:25:29.807Z,85.89
2023-05-09T21:27:56.108Z,85.50
2023-05-09T21:30:22.404Z,85.13
2023-05-09T21:32:48.827Z,84.88
2023-05-09T21:35:15.139Z,83.78
2023-05-09T21:37:41.429Z,82.13
2023-05-09T21:40:07.757Z,84.16
2023-05-09T21:42:34.042Z,83.33
2023-05-09T21:45:00.369Z,82.48
2023-05-09T21:47:26.881Z,83.82
2023-05-09T21:49:53.279Z,84.36
2023-05-09T21:52:19.584Z,85.33
2023-05-09T21:54:45.910Z,81.17
2023-05-09T21:57:12.224Z,81.90
2023-05-09T21:59:38.543Z,81.98
2023-05-09T22:02:04.890Z,82.65
2023-05-09T22:04:32.316Z,83.52
2023-05-09T22:06:58.622Z,84.06
2023-05-09T22:09:24.943Z,84.57
2023-05-09T22:11:51.230Z,84.38
2023-05-09T22:14:17.536Z,84.31
2023-05-09T22:16:43.937Z,83.80
2023-05-09T22:19:10.335Z,84.68
2023-05-09T22:21:36.651Z,84.97
2023-05-09T22:24:02.961Z,84.09
2023-05-09T22:26:29.282Z,83.62
2023-05-09T22:28:55.578Z,84.57
2023-05-09T22:31:21.901Z,83.81
2023-05-09T22:33:48.220Z,83.57
2023-05-09T22:36:14.516Z,83.29
2023-05-09T22:38:41.138Z,81.55
2023-05-09T22:41:07.431Z,81.06
2023-05-09T22:43:38.815Z,82.88
2023-05-09T22:46:06.154Z,81.30
2023-05-09T22:48:32.544Z,80.49
2023-05-09T22:50:58.846Z,81.14
2023-05-09T22:53:25.171Z,80.87
2023-05-09T22:55:51.472Z,80.93
2023-05-09T22:58:17.766Z,79.83
2023-05-09T23:00:44.080Z,78.09
2023-05-09T23:03:13.233Z,78.67
2023-05-09T23:05:39.687Z,78.59
2023-05-09T23:08:06.008Z,78.19
2023-05-09T23:10:32.308Z,77.75
2023-05-09T23:12:58.629Z,77.69
2023-05-09T23:15:24.938Z,76.35
2023-05-09T23:17:51.271Z,77.28
2023-05-09T23:20:17.780Z,77.29
2023-05-09T23:22:44.246Z,77.95
2023-05-09T23:25:10.537Z,77.51
2023-05-09T23:27:36.837Z,77.90
2023-05-09T23:30:03.174Z,77.57
2023-05-09T23:32:29.503Z,76.84
2023-05-09T23:34:55.810Z,77.71
2023-05-09T23:37:22.115Z,77.96
2023-05-09T23:39:48.411Z,78.21
2023-05-09T23:42:14.709Z,79.71
2023-05-09T23:44:41.063Z,80.29
2023-05-09T23:47:07.370Z,80.85
2023-05-09T23:49:33.666Z,79.89
2023-05-09T23:51:59.979Z,81.04
2023-05-09T23:54:26.280Z,80.27
2023-05-09T23:56:52.566Z,80.71
2023-05-09T23:59:18.861Z,78.66
